sensor_id;sensor_type;location;lat;lon;timestamp;temperature;humidity
1347;DHT22;667;48.796;9.480;2023-01-31T00:01:15;6.20;81.20
1347;DHT22;667;48.796;9.480;2023-01-31T00:03:41;6.20;81.10
1347;DHT22;667;48.796;9.480;2023-01-31T00:06:20;6.20;81.10
1347;DHT22;667;48.796;9.480;2023-01-31T00:08:47;6.20;81.10
1347;DHT22;667;48.796;9.480;2023-01-31T00:11:14;6.20;81.20
1347;DHT22;667;48.796;9.480;2023-01-31T00:13:39;6.10;81.10
1347;DHT22;667;48.796;9.480;2023-01-31T00:16:06;6.10;81.20
1347;DHT22;667;48.796;9.480;2023-01-31T00:18:32;6.10;81.30
1347;DHT22;667;48.796;9.480;2023-01-31T00:21:06;6.10;81.40
1347;DHT22;667;48.796;9.480;2023-01-31T00:23:32;6.10;81.50
1347;DHT22;667;48.796;9.480;2023-01-31T00:26:16;6.10;82.30
1347;DHT22;667;48.796;9.480;2023-01-31T00:28:43;6.10;81.50
1347;DHT22;667;48.796;9.480;2023-01-31T00:31:10;6.00;81.40
1347;DHT22;667;48.796;9.480;2023-01-31T00:33:37;6.00;81.30
1347;DHT22;667;48.796;9.480;2023-01-31T00:36:05;6.00;81.00
1347;DHT22;667;48.796;9.480;2023-01-31T00:38:31;6.00;80.80
1347;DHT22;667;48.796;9.480;2023-01-31T00:40:57;6.00;80.60
1347;DHT22;667;48.796;9.480;2023-01-31T00:43:23;6.00;80.30
1347;DHT22;667;48.796;9.480;2023-01-31T00:45:49;6.10;80.00
1347;DHT22;667;48.796;9.480;2023-01-31T00:48:14;6.10;79.80
1347;DHT22;667;48.796;9.480;2023-01-31T00:50:40;6.10;79.60
1347;DHT22;667;48.796;9.480;2023-01-31T00:53:05;6.10;79.40
1347;DHT22;667;48.796;9.480;2023-01-31T00:55:31;6.10;79.30
1347;DHT22;667;48.796;9.480;2023-01-31T00:57:57;6.10;79.10
1347;DHT22;667;48.796;9.480;2023-01-31T01:00:22;6.10;79.10
1347;DHT22;667;48.796;9.480;2023-01-31T01:02:48;6.20;78.90
1347;DHT22;667;48.796;9.480;2023-01-31T01:05:13;6.20;78.60
1347;DHT22;667;48.796;9.480;2023-01-31T01:07:39;6.20;78.50
1347;DHT22;667;48.796;9.480;2023-01-31T01:10:05;6.20;78.50
1347;DHT22;667;48.796;9.480;2023-01-31T01:12:31;6.20;78.40
1347;DHT22;667;48.796;9.480;2023-01-31T01:14:57;6.20;78.20
1347;DHT22;667;48.796;9.480;2023-01-31T01:17:22;6.20;78.00
1347;DHT22;667;48.796;9.480;2023-01-31T01:19:48;6.20;78.50
1347;DHT22;667;48.796;9.480;2023-01-31T01:22:14;6.20;77.90
1347;DHT22;667;48.796;9.480;2023-01-31T01:24:44;6.20;77.60
1347;DHT22;667;48.796;9.480;2023-01-31T01:27:10;6.20;77.60
1347;DHT22;667;48.796;9.480;2023-01-31T01:29:37;6.20;77.40
1347;DHT22;667;48.796;9.480;2023-01-31T01:32:03;6.20;77.30
1347;DHT22;667;48.796;9.480;2023-01-31T01:34:29;6.20;77.10
1347;DHT22;667;48.796;9.480;2023-01-31T01:36:54;6.20;77.80
1347;DHT22;667;48.796;9.480;2023-01-31T01:39:20;6.20;77.00
1347;DHT22;667;48.796;9.480;2023-01-31T01:41:46;6.20;76.90
1347;DHT22;667;48.796;9.480;2023-01-31T01:49:50;6.20;76.50
1347;DHT22;667;48.796;9.480;2023-01-31T01:52:18;6.20;76.60
1347;DHT22;667;48.796;9.480;2023-01-31T01:54:52;6.20;76.60
1347;DHT22;667;48.796;9.480;2023-01-31T01:57:25;6.20;76.50
1347;DHT22;667;48.796;9.480;2023-01-31T02:00:06;6.20;76.50
1347;DHT22;667;48.796;9.480;2023-01-31T02:02:36;6.20;76.50
1347;DHT22;667;48.796;9.480;2023-01-31T02:05:02;6.20;76.60
1347;DHT22;667;48.796;9.480;2023-01-31T02:07:29;6.20;76.70
1347;DHT22;667;48.796;9.480;2023-01-31T02:12:27;6.10;76.60
1347;DHT22;667;48.796;9.480;2023-01-31T02:14:53;6.10;76.60
1347;DHT22;667;48.796;9.480;2023-01-31T02:17:19;6.10;76.50
1347;DHT22;667;48.796;9.480;2023-01-31T02:22:28;6.10;76.20
1347;DHT22;667;48.796;9.480;2023-01-31T02:36:10;6.10;75.80
1347;DHT22;667;48.796;9.480;2023-01-31T02:43:54;6.10;75.90
1347;DHT22;667;48.796;9.480;2023-01-31T02:49:46;6.10;76.00
1347;DHT22;667;48.796;9.480;2023-01-31T02:52:19;6.10;76.10
1347;DHT22;667;48.796;9.480;2023-01-31T02:55:24;6.10;76.20
1347;DHT22;667;48.796;9.480;2023-01-31T02:58:11;6.10;76.20
1347;DHT22;667;48.796;9.480;2023-01-31T03:00:40;6.10;76.40
1347;DHT22;667;48.796;9.480;2023-01-31T03:03:11;6.10;76.50
1347;DHT22;667;48.796;9.480;2023-01-31T03:05:37;6.20;76.50
1347;DHT22;667;48.796;9.480;2023-01-31T03:08:04;6.20;76.50
1347;DHT22;667;48.796;9.480;2023-01-31T03:15:36;6.20;76.50
1347;DHT22;667;48.796;9.480;2023-01-31T03:18:28;6.20;76.50
1347;DHT22;667;48.796;9.480;2023-01-31T03:21:11;6.20;76.60
1347;DHT22;667;48.796;9.480;2023-01-31T03:23:41;6.20;76.70
1347;DHT22;667;48.796;9.480;2023-01-31T03:26:08;6.10;76.60
1347;DHT22;667;48.796;9.480;2023-01-31T03:28:35;6.10;76.70
1347;DHT22;667;48.796;9.480;2023-01-31T03:33:51;6.10;76.80
1347;DHT22;667;48.796;9.480;2023-01-31T03:44:38;6.20;77.20
1347;DHT22;667;48.796;9.480;2023-01-31T03:47:22;6.10;77.30
1347;DHT22;667;48.796;9.480;2023-01-31T03:49:50;6.10;77.40
1347;DHT22;667;48.796;9.480;2023-01-31T03:52:25;6.10;77.40
1347;DHT22;667;48.796;9.480;2023-01-31T03:54:59;6.10;77.50
1347;DHT22;667;48.796;9.480;2023-01-31T03:57:33;6.10;77.50
1347;DHT22;667;48.796;9.480;2023-01-31T04:00:02;6.10;77.60
1347;DHT22;667;48.796;9.480;2023-01-31T04:02:35;6.20;77.70
1347;DHT22;667;48.796;9.480;2023-01-31T04:05:09;6.20;77.70
1347;DHT22;667;48.796;9.480;2023-01-31T04:07:38;6.20;77.70
1347;DHT22;667;48.796;9.480;2023-01-31T04:10:13;6.20;77.80
1347;DHT22;667;48.796;9.480;2023-01-31T04:12:40;6.20;77.90
1347;DHT22;667;48.796;9.480;2023-01-31T04:15:06;6.10;77.80
1347;DHT22;667;48.796;9.480;2023-01-31T04:17:32;6.20;77.90
1347;DHT22;667;48.796;9.480;2023-01-31T04:20:00;6.20;78.00
1347;DHT22;667;48.796;9.480;2023-01-31T04:22:26;6.20;78.00
1347;DHT22;667;48.796;9.480;2023-01-31T04:24:52;6.10;77.90
1347;DHT22;667;48.796;9.480;2023-01-31T04:27:18;6.20;78.00
1347;DHT22;667;48.796;9.480;2023-01-31T04:29:43;6.20;77.90
1347;DHT22;667;48.796;9.480;2023-01-31T04:32:09;6.10;77.90
1347;DHT22;667;48.796;9.480;2023-01-31T04:34:34;6.20;78.00
1347;DHT22;667;48.796;9.480;2023-01-31T04:37:00;6.20;77.90
1347;DHT22;667;48.796;9.480;2023-01-31T04:39:25;6.20;78.10
1347;DHT22;667;48.796;9.480;2023-01-31T04:41:51;6.10;78.10
1347;DHT22;667;48.796;9.480;2023-01-31T04:44:17;6.10;78.00
1347;DHT22;667;48.796;9.480;2023-01-31T04:46:42;6.10;78.00
1347;DHT22;667;48.796;9.480;2023-01-31T04:49:08;6.10;77.90
1347;DHT22;667;48.796;9.480;2023-01-31T04:51:33;6.10;77.90
1347;DHT22;667;48.796;9.480;2023-01-31T04:53:59;6.10;77.90
1347;DHT22;667;48.796;9.480;2023-01-31T04:56:25;6.10;77.90
1347;DHT22;667;48.796;9.480;2023-01-31T04:58:51;6.00;77.80
1347;DHT22;667;48.796;9.480;2023-01-31T05:01:16;6.10;77.90
1347;DHT22;667;48.796;9.480;2023-01-31T05:03:42;6.00;77.70
1347;DHT22;667;48.796;9.480;2023-01-31T05:06:08;6.00;77.70
1347;DHT22;667;48.796;9.480;2023-01-31T05:08:33;6.00;77.80
1347;DHT22;667;48.796;9.480;2023-01-31T05:11:00;6.00;77.80
1347;DHT22;667;48.796;9.480;2023-01-31T05:13:26;5.90;77.80
1347;DHT22;667;48.796;9.480;2023-01-31T05:15:52;5.90;77.80
1347;DHT22;667;48.796;9.480;2023-01-31T05:18:18;5.90;77.90
1347;DHT22;667;48.796;9.480;2023-01-31T05:20:44;5.80;77.80
1347;DHT22;667;48.796;9.480;2023-01-31T05:23:10;5.80;77.70
1347;DHT22;667;48.796;9.480;2023-01-31T05:25:36;5.70;77.60
1347;DHT22;667;48.796;9.480;2023-01-31T05:28:03;5.70;77.70
1347;DHT22;667;48.796;9.480;2023-01-31T05:30:29;5.70;77.90
1347;DHT22;667;48.796;9.480;2023-01-31T05:32:54;5.60;77.80
1347;DHT22;667;48.796;9.480;2023-01-31T05:35:20;5.60;78.00
1347;DHT22;667;48.796;9.480;2023-01-31T05:37:46;5.60;77.90
1347;DHT22;667;48.796;9.480;2023-01-31T05:40:13;5.50;77.70
1347;DHT22;667;48.796;9.480;2023-01-31T05:42:39;5.50;77.60
1347;DHT22;667;48.796;9.480;2023-01-31T05:45:06;5.40;77.50
1347;DHT22;667;48.796;9.480;2023-01-31T05:47:32;5.40;77.50
1347;DHT22;667;48.796;9.480;2023-01-31T05:49:57;5.30;77.60
1347;DHT22;667;48.796;9.480;2023-01-31T05:52:23;5.20;77.90
1347;DHT22;667;48.796;9.480;2023-01-31T05:54:48;5.20;78.20
1347;DHT22;667;48.796;9.480;2023-01-31T05:57:14;5.20;78.30
1347;DHT22;667;48.796;9.480;2023-01-31T05:59:40;5.30;78.30
1347;DHT22;667;48.796;9.480;2023-01-31T06:02:05;5.20;78.90
1347;DHT22;667;48.796;9.480;2023-01-31T06:04:33;5.30;78.40
1347;DHT22;667;48.796;9.480;2023-01-31T06:06:58;5.20;78.20
1347;DHT22;667;48.796;9.480;2023-01-31T06:09:24;5.20;78.20
1347;DHT22;667;48.796;9.480;2023-01-31T06:11:50;5.20;78.10
1347;DHT22;667;48.796;9.480;2023-01-31T06:14:15;5.20;78.20
1347;DHT22;667;48.796;9.480;2023-01-31T06:16:41;5.20;78.20
1347;DHT22;667;48.796;9.480;2023-01-31T06:19:06;5.20;78.10
1347;DHT22;667;48.796;9.480;2023-01-31T06:21:32;5.10;78.00
1347;DHT22;667;48.796;9.480;2023-01-31T06:23:58;5.10;77.90
1347;DHT22;667;48.796;9.480;2023-01-31T06:26:23;5.10;78.70
1347;DHT22;667;48.796;9.480;2023-01-31T06:28:49;5.10;78.10
1347;DHT22;667;48.796;9.480;2023-01-31T06:31:14;5.00;78.10
1347;DHT22;667;48.796;9.480;2023-01-31T06:33:40;5.00;78.10
1347;DHT22;667;48.796;9.480;2023-01-31T06:36:06;5.00;78.40
1347;DHT22;667;48.796;9.480;2023-01-31T06:38:32;5.00;78.40
1347;DHT22;667;48.796;9.480;2023-01-31T06:40:57;4.90;78.30
1347;DHT22;667;48.796;9.480;2023-01-31T06:43:23;4.90;78.40
1347;DHT22;667;48.796;9.480;2023-01-31T06:45:49;4.90;78.30
1347;DHT22;667;48.796;9.480;2023-01-31T06:48:15;4.90;78.50
1347;DHT22;667;48.796;9.480;2023-01-31T06:50:41;4.90;78.40
1347;DHT22;667;48.796;9.480;2023-01-31T06:53:07;4.80;78.40
1347;DHT22;667;48.796;9.480;2023-01-31T06:55:32;4.80;78.40
1347;DHT22;667;48.796;9.480;2023-01-31T06:57:58;4.80;78.70
1347;DHT22;667;48.796;9.480;2023-01-31T07:00:24;4.80;79.00
1347;DHT22;667;48.796;9.480;2023-01-31T07:02:50;4.80;79.30
1347;DHT22;667;48.796;9.480;2023-01-31T07:05:17;4.80;79.50
1347;DHT22;667;48.796;9.480;2023-01-31T07:07:43;4.80;79.60
1347;DHT22;667;48.796;9.480;2023-01-31T07:10:09;4.90;79.80
1347;DHT22;667;48.796;9.480;2023-01-31T07:12:35;4.90;79.80
1347;DHT22;667;48.796;9.480;2023-01-31T07:15:01;4.90;79.70
1347;DHT22;667;48.796;9.480;2023-01-31T07:17:27;4.90;79.70
1347;DHT22;667;48.796;9.480;2023-01-31T07:19:53;5.00;79.70
1347;DHT22;667;48.796;9.480;2023-01-31T07:22:18;5.00;79.50
1347;DHT22;667;48.796;9.480;2023-01-31T07:24:44;5.00;79.40
1347;DHT22;667;48.796;9.480;2023-01-31T07:27:12;5.00;79.30
1347;DHT22;667;48.796;9.480;2023-01-31T07:29:38;5.00;79.30
1347;DHT22;667;48.796;9.480;2023-01-31T07:32:04;5.10;79.30
1347;DHT22;667;48.796;9.480;2023-01-31T07:34:30;5.10;79.30
1347;DHT22;667;48.796;9.480;2023-01-31T07:36:55;5.10;79.30
1347;DHT22;667;48.796;9.480;2023-01-31T07:39:21;5.10;79.30
1347;DHT22;667;48.796;9.480;2023-01-31T07:41:48;5.20;79.30
1347;DHT22;667;48.796;9.480;2023-01-31T07:44:14;5.20;79.20
1347;DHT22;667;48.796;9.480;2023-01-31T07:46:39;5.30;79.30
1347;DHT22;667;48.796;9.480;2023-01-31T07:49:06;5.40;79.40
1347;DHT22;667;48.796;9.480;2023-01-31T07:51:33;5.40;79.20
1347;DHT22;667;48.796;9.480;2023-01-31T07:54:00;5.40;79.00
1347;DHT22;667;48.796;9.480;2023-01-31T07:56:26;5.50;78.80
1347;DHT22;667;48.796;9.480;2023-01-31T07:58:51;5.50;78.60
1347;DHT22;667;48.796;9.480;2023-01-31T08:01:20;5.50;78.40
1347;DHT22;667;48.796;9.480;2023-01-31T08:04:09;5.50;78.40
1347;DHT22;667;48.796;9.480;2023-01-31T08:06:35;5.60;78.40
1347;DHT22;667;48.796;9.480;2023-01-31T08:09:01;5.60;78.30
1347;DHT22;667;48.796;9.480;2023-01-31T08:11:26;5.60;78.20
1347;DHT22;667;48.796;9.480;2023-01-31T08:13:52;5.60;78.20
1347;DHT22;667;48.796;9.480;2023-01-31T08:16:18;5.70;78.20
1347;DHT22;667;48.796;9.480;2023-01-31T08:21:26;5.70;77.90
1347;DHT22;667;48.796;9.480;2023-01-31T08:23:52;5.80;77.90
1347;DHT22;667;48.796;9.480;2023-01-31T08:26:19;5.70;77.80
1347;DHT22;667;48.796;9.480;2023-01-31T08:28:46;5.80;77.90
1347;DHT22;667;48.796;9.480;2023-01-31T08:31:15;5.80;77.80
1347;DHT22;667;48.796;9.480;2023-01-31T08:33:41;5.90;78.00
1347;DHT22;667;48.796;9.480;2023-01-31T08:36:08;6.00;78.10
1347;DHT22;667;48.796;9.480;2023-01-31T08:38:34;6.00;78.20
1347;DHT22;667;48.796;9.480;2023-01-31T08:40:59;6.10;78.90
1347;DHT22;667;48.796;9.480;2023-01-31T08:43:25;6.30;79.50
1347;DHT22;667;48.796;9.480;2023-01-31T08:45:50;6.40;78.50
1347;DHT22;667;48.796;9.480;2023-01-31T08:48:16;6.50;77.10
1347;DHT22;667;48.796;9.480;2023-01-31T08:50:41;6.50;76.60
1347;DHT22;667;48.796;9.480;2023-01-31T08:53:07;6.50;76.40
1347;DHT22;667;48.796;9.480;2023-01-31T08:55:34;6.60;76.20
1347;DHT22;667;48.796;9.480;2023-01-31T08:58:00;6.70;76.20
1347;DHT22;667;48.796;9.480;2023-01-31T09:00:27;6.70;76.10
1347;DHT22;667;48.796;9.480;2023-01-31T09:02:53;6.80;76.00
1347;DHT22;667;48.796;9.480;2023-01-31T09:05:19;6.80;75.60
1347;DHT22;667;48.796;9.480;2023-01-31T09:07:45;6.80;75.30
1347;DHT22;667;48.796;9.480;2023-01-31T09:10:10;6.80;75.10
1347;DHT22;667;48.796;9.480;2023-01-31T09:12:36;6.90;75.20
1347;DHT22;667;48.796;9.480;2023-01-31T09:15:02;6.80;75.00
1347;DHT22;667;48.796;9.480;2023-01-31T09:17:29;6.80;75.00
1347;DHT22;667;48.796;9.480;2023-01-31T09:19:55;6.90;74.90
1347;DHT22;667;48.796;9.480;2023-01-31T09:22:21;6.90;74.70
1347;DHT22;667;48.796;9.480;2023-01-31T09:24:47;6.80;74.60
1347;DHT22;667;48.796;9.480;2023-01-31T09:27:13;6.80;74.70
1347;DHT22;667;48.796;9.480;2023-01-31T09:29:38;6.80;74.60
1347;DHT22;667;48.796;9.480;2023-01-31T09:32:04;6.80;74.60
1347;DHT22;667;48.796;9.480;2023-01-31T09:34:30;6.80;74.60
1347;DHT22;667;48.796;9.480;2023-01-31T09:36:56;6.80;74.80
1347;DHT22;667;48.796;9.480;2023-01-31T09:39:22;6.90;76.20
1347;DHT22;667;48.796;9.480;2023-01-31T09:41:57;7.10;76.40
1347;DHT22;667;48.796;9.480;2023-01-31T09:44:38;7.30;75.60
1347;DHT22;667;48.796;9.480;2023-01-31T09:49:52;7.60;73.80
1347;DHT22;667;48.796;9.480;2023-01-31T09:52:18;7.70;73.40
1347;DHT22;667;48.796;9.480;2023-01-31T09:54:44;7.60;72.90
1347;DHT22;667;48.796;9.480;2023-01-31T10:08:14;7.50;72.00
1347;DHT22;667;48.796;9.480;2023-01-31T10:10:53;7.50;71.40
1347;DHT22;667;48.796;9.480;2023-01-31T10:13:54;7.50;71.20
1347;DHT22;667;48.796;9.480;2023-01-31T10:19:42;7.50;71.20
1347;DHT22;667;48.796;9.480;2023-01-31T10:22:16;7.50;71.50
1347;DHT22;667;48.796;9.480;2023-01-31T10:24:51;7.60;71.70
1347;DHT22;667;48.796;9.480;2023-01-31T10:30:11;7.70;71.50
1347;DHT22;667;48.796;9.480;2023-01-31T10:32:43;7.70;71.40
1347;DHT22;667;48.796;9.480;2023-01-31T10:35:22;7.80;71.10
1347;DHT22;667;48.796;9.480;2023-01-31T10:37:52;7.80;70.50
1347;DHT22;667;48.796;9.480;2023-01-31T10:42:51;7.90;70.40
1347;DHT22;667;48.796;9.480;2023-01-31T10:45:22;7.90;70.50
1347;DHT22;667;48.796;9.480;2023-01-31T10:56:25;10.70;64.70
1347;DHT22;667;48.796;9.480;2023-01-31T10:58:53;10.70;62.40
1347;DHT22;667;48.796;9.480;2023-01-31T11:01:20;10.80;60.90
1347;DHT22;667;48.796;9.480;2023-01-31T11:03:51;10.40;60.70
1347;DHT22;667;48.796;9.480;2023-01-31T11:06:18;10.00;60.80
1347;DHT22;667;48.796;9.480;2023-01-31T11:08:58;9.60;62.80
1347;DHT22;667;48.796;9.480;2023-01-31T11:11:25;9.30;63.40
1347;DHT22;667;48.796;9.480;2023-01-31T11:14:02;9.00;64.00
1347;DHT22;667;48.796;9.480;2023-01-31T11:16:34;8.90;64.80
1347;DHT22;667;48.796;9.480;2023-01-31T11:19:09;8.70;65.50
1347;DHT22;667;48.796;9.480;2023-01-31T11:21:39;8.50;65.80
1347;DHT22;667;48.796;9.480;2023-01-31T11:24:15;8.40;66.40
1347;DHT22;667;48.796;9.480;2023-01-31T11:26:51;8.40;66.90
1347;DHT22;667;48.796;9.480;2023-01-31T11:29:21;8.40;67.00
1347;DHT22;667;48.796;9.480;2023-01-31T11:31:48;8.30;67.30
1347;DHT22;667;48.796;9.480;2023-01-31T11:34:25;8.30;67.50
1347;DHT22;667;48.796;9.480;2023-01-31T11:36:52;8.20;67.50
1347;DHT22;667;48.796;9.480;2023-01-31T11:39:34;8.20;67.30
1347;DHT22;667;48.796;9.480;2023-01-31T11:44:32;8.20;67.60
1347;DHT22;667;48.796;9.480;2023-01-31T11:47:01;8.20;67.80
1347;DHT22;667;48.796;9.480;2023-01-31T11:49:38;8.20;67.70
1347;DHT22;667;48.796;9.480;2023-01-31T11:52:18;8.20;67.70
1347;DHT22;667;48.796;9.480;2023-01-31T11:54:49;8.20;67.50
1347;DHT22;667;48.796;9.480;2023-01-31T11:57:24;8.20;67.70
1347;DHT22;667;48.796;9.480;2023-01-31T11:59:53;8.20;67.60
1347;DHT22;667;48.796;9.480;2023-01-31T12:02:37;8.20;67.50
1347;DHT22;667;48.796;9.480;2023-01-31T12:05:15;8.20;67.60
1347;DHT22;667;48.796;9.480;2023-01-31T12:07:49;8.10;67.70
1347;DHT22;667;48.796;9.480;2023-01-31T12:10:42;8.20;67.80
1347;DHT22;667;48.796;9.480;2023-01-31T12:13:18;8.20;67.70
1347;DHT22;667;48.796;9.480;2023-01-31T12:16:02;8.20;67.80
1347;DHT22;667;48.796;9.480;2023-01-31T12:26:36;8.20;68.30
1347;DHT22;667;48.796;9.480;2023-01-31T12:29:16;8.10;68.20
1347;DHT22;667;48.796;9.480;2023-01-31T12:31:50;8.10;68.40
1347;DHT22;667;48.796;9.480;2023-01-31T12:34:30;8.10;67.80
1347;DHT22;667;48.796;9.480;2023-01-31T12:50:55;8.10;68.40
1347;DHT22;667;48.796;9.480;2023-01-31T12:56:08;8.20;68.50
1347;DHT22;667;48.796;9.480;2023-01-31T13:01:33;8.20;68.50
1347;DHT22;667;48.796;9.480;2023-01-31T13:07:14;8.30;68.50
1347;DHT22;667;48.796;9.480;2023-01-31T13:09:44;8.30;68.20
1347;DHT22;667;48.796;9.480;2023-01-31T13:12:20;8.30;68.10
1347;DHT22;667;48.796;9.480;2023-01-31T13:14:57;8.30;68.00
1347;DHT22;667;48.796;9.480;2023-01-31T13:17:28;8.30;67.80
1347;DHT22;667;48.796;9.480;2023-01-31T13:20:01;8.30;67.90
1347;DHT22;667;48.796;9.480;2023-01-31T13:22:35;8.30;67.60
1347;DHT22;667;48.796;9.480;2023-01-31T13:27:46;8.30;66.20
1347;DHT22;667;48.796;9.480;2023-01-31T13:33:27;8.20;64.60
1347;DHT22;667;48.796;9.480;2023-01-31T13:38:42;8.20;64.60
1347;DHT22;667;48.796;9.480;2023-01-31T13:41:17;8.10;64.60
1347;DHT22;667;48.796;9.480;2023-01-31T13:43:43;8.10;64.80
1347;DHT22;667;48.796;9.480;2023-01-31T13:46:11;8.10;65.10
1347;DHT22;667;48.796;9.480;2023-01-31T13:54:21;8.10;65.20
1347;DHT22;667;48.796;9.480;2023-01-31T13:56:56;8.10;65.30
1347;DHT22;667;48.796;9.480;2023-01-31T13:59:31;8.10;65.40
1347;DHT22;667;48.796;9.480;2023-01-31T14:02:14;8.00;65.50
1347;DHT22;667;48.796;9.480;2023-01-31T14:04:41;8.00;65.60
1347;DHT22;667;48.796;9.480;2023-01-31T14:07:14;8.00;65.60
1347;DHT22;667;48.796;9.480;2023-01-31T14:12:33;8.00;65.70
1347;DHT22;667;48.796;9.480;2023-01-31T14:14:59;8.10;65.80
1347;DHT22;667;48.796;9.480;2023-01-31T14:22:24;8.10;65.90
1347;DHT22;667;48.796;9.480;2023-01-31T14:24:57;8.10;66.00
1347;DHT22;667;48.796;9.480;2023-01-31T14:27:59;8.10;65.80
1347;DHT22;667;48.796;9.480;2023-01-31T14:30:35;8.10;66.00
1347;DHT22;667;48.796;9.480;2023-01-31T14:33:04;8.10;66.00
1347;DHT22;667;48.796;9.480;2023-01-31T14:35:46;8.10;65.80
1347;DHT22;667;48.796;9.480;2023-01-31T14:46:32;8.10;65.90
1347;DHT22;667;48.796;9.480;2023-01-31T14:49:25;8.10;66.70
1347;DHT22;667;48.796;9.480;2023-01-31T14:57:40;8.00;65.60
1347;DHT22;667;48.796;9.480;2023-01-31T15:05:17;7.90;65.90
1347;DHT22;667;48.796;9.480;2023-01-31T15:11:46;7.90;65.70
1347;DHT22;667;48.796;9.480;2023-01-31T15:16:27;7.80;66.10
1347;DHT22;667;48.796;9.480;2023-01-31T15:21:53;7.80;66.20
1347;DHT22;667;48.796;9.480;2023-01-31T15:24:35;7.70;66.20
1347;DHT22;667;48.796;9.480;2023-01-31T15:27:10;7.70;66.50
1347;DHT22;667;48.796;9.480;2023-01-31T15:29:48;7.70;66.60
1347;DHT22;667;48.796;9.480;2023-01-31T15:32:36;7.70;66.60
1347;DHT22;667;48.796;9.480;2023-01-31T15:35:21;7.70;66.50
1347;DHT22;667;48.796;9.480;2023-01-31T15:38:03;7.60;66.70
1347;DHT22;667;48.796;9.480;2023-01-31T15:40:29;7.60;66.80
1347;DHT22;667;48.796;9.480;2023-01-31T15:43:16;7.60;66.80
1347;DHT22;667;48.796;9.480;2023-01-31T15:45:45;7.70;67.10
1347;DHT22;667;48.796;9.480;2023-01-31T15:48:16;7.70;66.90
1347;DHT22;667;48.796;9.480;2023-01-31T15:50:53;7.70;67.00
1347;DHT22;667;48.796;9.480;2023-01-31T15:53:25;7.70;67.10
1347;DHT22;667;48.796;9.480;2023-01-31T15:55:54;7.70;67.20
1347;DHT22;667;48.796;9.480;2023-01-31T15:58:26;7.60;67.30
1347;DHT22;667;48.796;9.480;2023-01-31T16:00:54;7.70;67.50
1347;DHT22;667;48.796;9.480;2023-01-31T16:03:41;7.70;67.60
1347;DHT22;667;48.796;9.480;2023-01-31T16:06:20;7.70;67.60
1347;DHT22;667;48.796;9.480;2023-01-31T16:08:51;7.70;67.70
1347;DHT22;667;48.796;9.480;2023-01-31T16:11:17;7.70;67.70
1347;DHT22;667;48.796;9.480;2023-01-31T16:13:44;7.70;67.80
1347;DHT22;667;48.796;9.480;2023-01-31T16:16:10;7.70;67.80
1347;DHT22;667;48.796;9.480;2023-01-31T16:18:38;7.70;67.80
1347;DHT22;667;48.796;9.480;2023-01-31T16:24:23;7.60;67.90
1347;DHT22;667;48.796;9.480;2023-01-31T16:26:59;7.60;68.40
1347;DHT22;667;48.796;9.480;2023-01-31T16:32:18;7.60;69.10
1347;DHT22;667;48.796;9.480;2023-01-31T16:35:00;7.60;69.40
1347;DHT22;667;48.796;9.480;2023-01-31T16:37:33;7.50;69.50
1347;DHT22;667;48.796;9.480;2023-01-31T16:42:30;7.50;69.80
1347;DHT22;667;48.796;9.480;2023-01-31T16:44:57;7.50;69.90
1347;DHT22;667;48.796;9.480;2023-01-31T16:47:45;7.50;69.90
1347;DHT22;667;48.796;9.480;2023-01-31T16:50:27;7.50;69.90
1347;DHT22;667;48.796;9.480;2023-01-31T16:53:22;7.50;70.10
1347;DHT22;667;48.796;9.480;2023-01-31T16:58:49;7.50;70.50
1347;DHT22;667;48.796;9.480;2023-01-31T17:01:21;7.40;70.60
1347;DHT22;667;48.796;9.480;2023-01-31T17:04:04;7.40;70.80
1347;DHT22;667;48.796;9.480;2023-01-31T17:06:30;7.40;70.90
1347;DHT22;667;48.796;9.480;2023-01-31T17:08:57;7.40;71.20
1347;DHT22;667;48.796;9.480;2023-01-31T17:11:22;7.40;71.40
1347;DHT22;667;48.796;9.480;2023-01-31T17:13:48;7.40;71.60
1347;DHT22;667;48.796;9.480;2023-01-31T17:16:17;7.30;71.60
1347;DHT22;667;48.796;9.480;2023-01-31T17:18:52;7.30;71.60
1347;DHT22;667;48.796;9.480;2023-01-31T17:21:22;7.30;71.60
1347;DHT22;667;48.796;9.480;2023-01-31T17:23:48;7.30;71.50
1347;DHT22;667;48.796;9.480;2023-01-31T17:26:21;7.30;71.70
1347;DHT22;667;48.796;9.480;2023-01-31T17:28:48;7.30;72.10
1347;DHT22;667;48.796;9.480;2023-01-31T17:31:23;7.30;72.40
1347;DHT22;667;48.796;9.480;2023-01-31T17:33:50;7.30;72.80
1347;DHT22;667;48.796;9.480;2023-01-31T17:36:16;7.30;73.20
1347;DHT22;667;48.796;9.480;2023-01-31T17:38:42;7.30;73.40
1347;DHT22;667;48.796;9.480;2023-01-31T17:41:13;7.30;73.70
1347;DHT22;667;48.796;9.480;2023-01-31T17:43:39;7.20;73.90
1347;DHT22;667;48.796;9.480;2023-01-31T17:46:05;7.20;74.20
1347;DHT22;667;48.796;9.480;2023-01-31T17:48:31;7.20;74.40
1347;DHT22;667;48.796;9.480;2023-01-31T17:50:57;7.20;74.60
1347;DHT22;667;48.796;9.480;2023-01-31T17:53:22;7.20;74.80
1347;DHT22;667;48.796;9.480;2023-01-31T17:55:48;7.20;74.90
1347;DHT22;667;48.796;9.480;2023-01-31T17:58:14;7.20;74.90
1347;DHT22;667;48.796;9.480;2023-01-31T18:00:42;7.20;75.00
1347;DHT22;667;48.796;9.480;2023-01-31T18:03:18;7.10;75.10
1347;DHT22;667;48.796;9.480;2023-01-31T18:05:44;7.10;75.10
1347;DHT22;667;48.796;9.480;2023-01-31T18:08:10;7.10;75.10
1347;DHT22;667;48.796;9.480;2023-01-31T18:10:36;7.10;75.30
1347;DHT22;667;48.796;9.480;2023-01-31T18:13:01;7.10;75.40
1347;DHT22;667;48.796;9.480;2023-01-31T18:15:27;7.10;75.30
1347;DHT22;667;48.796;9.480;2023-01-31T18:17:52;7.10;75.20
1347;DHT22;667;48.796;9.480;2023-01-31T18:20:18;7.10;75.00
1347;DHT22;667;48.796;9.480;2023-01-31T18:22:44;7.10;74.80
1347;DHT22;667;48.796;9.480;2023-01-31T18:25:10;7.10;74.70
1347;DHT22;667;48.796;9.480;2023-01-31T18:27:36;7.00;74.30
1347;DHT22;667;48.796;9.480;2023-01-31T18:30:03;7.00;74.20
1347;DHT22;667;48.796;9.480;2023-01-31T18:32:31;7.10;74.20
1347;DHT22;667;48.796;9.480;2023-01-31T18:34:56;7.10;73.90
1347;DHT22;667;48.796;9.480;2023-01-31T18:37:22;7.10;73.60
1347;DHT22;667;48.796;9.480;2023-01-31T18:39:49;7.10;73.30
1347;DHT22;667;48.796;9.480;2023-01-31T18:42:15;7.10;73.20
1347;DHT22;667;48.796;9.480;2023-01-31T18:44:41;7.10;73.20
1347;DHT22;667;48.796;9.480;2023-01-31T18:47:07;7.10;73.10
1347;DHT22;667;48.796;9.480;2023-01-31T18:49:32;7.10;73.00
1347;DHT22;667;48.796;9.480;2023-01-31T18:51:58;7.10;73.00
1347;DHT22;667;48.796;9.480;2023-01-31T18:54:23;7.10;72.70
1347;DHT22;667;48.796;9.480;2023-01-31T18:56:49;7.10;72.80
1347;DHT22;667;48.796;9.480;2023-01-31T18:59:15;7.10;72.90
1347;DHT22;667;48.796;9.480;2023-01-31T19:01:40;7.20;73.00
1347;DHT22;667;48.796;9.480;2023-01-31T19:04:06;7.20;73.00
1347;DHT22;667;48.796;9.480;2023-01-31T19:06:34;7.20;72.90
1347;DHT22;667;48.796;9.480;2023-01-31T19:09:05;7.20;72.90
1347;DHT22;667;48.796;9.480;2023-01-31T19:11:31;7.20;72.90
1347;DHT22;667;48.796;9.480;2023-01-31T19:13:57;7.20;72.90
1347;DHT22;667;48.796;9.480;2023-01-31T19:16:27;7.20;72.90
1347;DHT22;667;48.796;9.480;2023-01-31T19:18:57;7.30;73.00
1347;DHT22;667;48.796;9.480;2023-01-31T19:21:28;7.30;72.90
1347;DHT22;667;48.796;9.480;2023-01-31T19:23:56;7.30;73.10
1347;DHT22;667;48.796;9.480;2023-01-31T19:26:22;7.30;73.30
1347;DHT22;667;48.796;9.480;2023-01-31T19:28:48;7.30;73.60
1347;DHT22;667;48.796;9.480;2023-01-31T19:31:16;7.30;73.80
1347;DHT22;667;48.796;9.480;2023-01-31T19:33:46;7.30;73.70
1347;DHT22;667;48.796;9.480;2023-01-31T19:36:14;7.20;73.70
1347;DHT22;667;48.796;9.480;2023-01-31T19:38:41;7.30;73.80
1347;DHT22;667;48.796;9.480;2023-01-31T19:41:08;7.30;73.80
1347;DHT22;667;48.796;9.480;2023-01-31T19:43:35;7.30;73.70